Time;durP1;ratioP1;P1;durP2;ratioP2;P2;SDS_P1;SDS_P2;PMS_P1;PMS_P2;Temp;Humidity;BMP_temperature;BMP_pressure;BME280_temperature;BME280_humidity;BME280_pressure;Samples;Min_cycle;Max_cycle;Signal;HPM_P1;HPM_P2
2021/01/23 00:00:36;;;;;;;12.73;8.52;;;;;;;;;;5050963;28;20231;-70
2021/01/23 00:03:02;;;;;;;13.15;7.53;;;;;;;;;;5051397;28;20595;-71
2021/01/23 00:05:29;;;;;;;12.07;7.35;;;;;;;;;;5050972;28;20278;-70
2021/01/23 00:08:01;;;;;;;11.73;7.35;;;;;;;;;;5051108;28;20181;-72
2021/01/23 00:10:29;;;;;;;12.80;7.18;;;;;;;;;;5050467;28;20216;-69
2021/01/23 00:12:57;;;;;;;13.57;7.60;;;;;;;;;;5051394;28;20584;-70
2021/01/23 00:15:23;;;;;;;11.40;7.20;;;;;;;;;;5050809;28;20196;-69
2021/01/23 00:17:49;;;;;;;12.68;7.32;;;;;;;;;;5051422;28;20193;-70
2021/01/23 00:20:15;;;;;;;10.48;7.35;;;;;;;;;;5050744;28;20675;-70
2021/01/23 00:22:42;;;;;;;14.45;7.40;;;;;;;;;;5051962;28;20641;-70
2021/01/23 00:25:08;;;;;;;15.35;8.13;;;;;;;;;;5051017;28;20188;-70
2021/01/23 00:27:35;;;;;;;13.07;8.07;;;;;;;;;;5051338;28;20302;-70
2021/01/23 00:30:03;;;;;;;14.23;8.15;;;;;;;;;;5049666;28;20213;-70
2021/01/23 00:32:30;;;;;;;14.27;8.90;;;;;;;;;;5050825;28;20207;-70
2021/01/23 00:34:56;;;;;;;17.67;9.05;;;;;;;;;;5050216;28;20196;-70
2021/01/23 00:37:22;;;;;;;17.08;9.50;;;;;;;;;;5050689;28;20235;-70
2021/01/23 00:39:49;;;;;;;17.00;9.32;;;;;;;;;;5050340;28;20203;-71
2021/01/23 00:42:15;;;;;;;16.40;9.10;;;;;;;;;;5050635;28;20188;-70
2021/01/23 00:44:41;;;;;;;14.77;8.68;;;;;;;;;;5050449;28;20233;-70
2021/01/23 00:47:07;;;;;;;15.13;8.65;;;;;;;;;;5050814;28;20192;-69
2021/01/23 00:49:35;;;;;;;16.63;8.68;;;;;;;;;;5050060;28;20216;-70
2021/01/23 00:52:03;;;;;;;15.30;8.75;;;;;;;;;;5049149;28;20200;-69
2021/01/23 00:54:29;;;;;;;13.45;8.45;;;;;;;;;;5050154;28;20643;-70
2021/01/23 00:56:56;;;;;;;13.43;8.02;;;;;;;;;;5050426;28;20625;-70
2021/01/23 00:59:24;;;;;;;12.77;7.90;;;;;;;;;;5048665;28;20290;-70
2021/01/23 01:01:51;;;;;;;30.55;17.10;;;;;;;;;;5050910;28;20199;-70
2021/01/23 01:04:32;;;;;;;12.38;7.82;;;;;;;;;;5048311;28;20254;-69
2021/01/23 01:06:58;;;;;;;12.07;7.50;;;;;;;;;;5052497;28;20697;-69
2021/01/23 01:09:24;;;;;;;14.45;8.43;;;;;;;;;;5049770;28;20196;-70
2021/01/23 01:11:50;;;;;;;13.50;7.03;;;;;;;;;;5050336;28;20740;-69
2021/01/23 01:14:17;;;;;;;13.48;7.80;;;;;;;;;;5049781;28;20204;-70
2021/01/23 01:16:44;;;;;;;19.23;7.63;;;;;;;;;;5050364;28;20206;-71
2021/01/23 01:19:10;;;;;;;13.00;7.10;;;;;;;;;;5049875;28;20654;-70
2021/01/23 01:21:37;;;;;;;13.00;7.72;;;;;;;;;;5049517;28;20203;-69
2021/01/23 01:24:04;;;;;;;12.18;7.30;;;;;;;;;;5050345;28;20279;-69
2021/01/23 01:26:30;;;;;;;10.75;7.63;;;;;;;;;;5049414;28;20200;-69
2021/01/23 01:28:56;;;;;;;11.27;7.32;;;;;;;;;;5050184;28;20204;-70
2021/01/23 01:31:23;;;;;;;11.65;7.07;;;;;;;;;;5048909;28;20232;-69
2021/01/23 01:33:49;;;;;;;14.27;7.85;;;;;;;;;;5050077;28;20666;-69
2021/01/23 01:36:15;;;;;;;12.95;7.82;;;;;;;;;;5049275;28;20232;-68
2021/01/23 01:38:42;;;;;;;14.60;8.45;;;;;;;;;;5049977;28;20198;-69
2021/01/23 01:41:08;;;;;;;14.32;8.43;;;;;;;;;;5050852;28;20291;-69
2021/01/23 01:43:35;;;;;;;14.52;8.95;;;;;;;;;;5053345;28;20196;-70
2021/01/23 01:46:02;;;;;;;14.55;8.60;;;;;;;;;;5052914;28;20192;-70
2021/01/23 01:48:29;;;;;;;19.98;11.20;;;;;;;;;;5049969;28;20270;-70
2021/01/23 01:50:55;;;;;;;17.52;10.82;;;;;;;;;;5049488;28;20227;-70
2021/01/23 01:53:22;;;;;;;18.33;10.25;;;;;;;;;;5050206;28;20188;-70
2021/01/23 01:55:49;;;;;;;16.45;8.82;;;;;;;;;;5049397;28;20295;-69
2021/01/23 01:58:16;;;;;;;10.30;4.50;;;;;;;;;;5050107;28;20196;-68
2021/01/23 02:00:42;;;;;;;15.60;9.10;;;;;;;;;;5048992;28;20213;-69
2021/01/23 02:03:14;;;;;;;14.43;8.73;;;;;;;;;;5049808;28;20216;-70
2021/01/23 02:05:43;;;;;;;15.30;8.77;;;;;;;;;;5048881;28;20193;-69
2021/01/23 02:08:28;;;;;;;15.40;8.18;;;;;;;;;;5049710;28;20195;-71
2021/01/23 02:11:09;;;;;;;12.63;7.82;;;;;;;;;;5048941;28;20273;-70
2021/01/23 02:13:44;;;;;;;11.93;7.20;;;;;;;;;;5049482;28;20222;-70
2021/01/23 02:16:16;;;;;;;12.73;7.90;;;;;;;;;;5049098;28;20219;-70
2021/01/23 02:19:01;;;;;;;10.60;7.32;;;;;;;;;;5049856;28;20243;-70
2021/01/23 02:21:47;;;;;;;13.60;8.75;;;;;;;;;;5048734;28;20665;-71
2021/01/23 02:24:16;;;;;;;14.15;8.82;;;;;;;;;;5049556;28;20191;-71
2021/01/23 02:26:58;;;;;;;12.20;7.68;;;;;;;;;;5049559;28;20262;-71
2021/01/23 02:29:42;;;;;;;12.52;8.02;;;;;;;;;;5049144;28;20184;-71
2021/01/23 02:32:09;;;;;;;13.98;8.57;;;;;;;;;;5049174;28;20295;-70
2021/01/23 02:34:36;;;;;;;11.63;8.13;;;;;;;;;;5048565;28;20295;-68
2021/01/23 02:37:03;;;;;;;13.55;8.50;;;;;;;;;;5049315;28;20228;-70
2021/01/23 02:39:30;;;;;;;13.15;8.63;;;;;;;;;;5050934;28;20196;-71
2021/01/23 02:41:57;;;;;;;15.55;9.30;;;;;;;;;;5049235;28;20304;-70
2021/01/23 02:44:24;;;;;;;15.60;9.05;;;;;;;;;;5048636;28;20291;-70
2021/01/23 02:46:52;;;;;;;17.00;8.98;;;;;;;;;;5049367;28;20666;-69
2021/01/23 02:49:19;;;;;;;11.52;7.13;;;;;;;;;;5048703;28;20281;-70
2021/01/23 02:51:58;;;;;;;13.88;8.65;;;;;;;;;;5049309;28;20248;-70
2021/01/23 02:54:39;;;;;;;10.73;7.50;;;;;;;;;;5050712;28;20242;-70
2021/01/23 02:57:06;;;;;;;12.73;7.90;;;;;;;;;;5052729;28;20211;-69
2021/01/23 02:59:33;;;;;;;13.85;7.57;;;;;;;;;;5052270;28;20204;-69
2021/01/23 03:02:01;;;;;;;10.73;7.53;;;;;;;;;;5052633;28;20223;-71
2021/01/23 03:04:29;;;;;;;11.15;7.07;;;;;;;;;;5052221;28;20185;-69
2021/01/23 03:06:56;;;;;;;106.30;46.45;;;;;;;;;;5052401;28;20188;-69
2021/01/23 03:09:23;;;;;;;19.35;10.02;;;;;;;;;;5052001;28;20212;-69
2021/01/23 03:11:50;;;;;;;12.77;8.20;;;;;;;;;;5052425;28;20227;-71
2021/01/23 03:14:16;;;;;;;13.57;8.00;;;;;;;;;;5051976;28;20574;-69
2021/01/23 03:16:49;;;;;;;13.88;7.95;;;;;;;;;;5052897;28;20196;-69
2021/01/23 03:19:16;;;;;;;13.73;7.82;;;;;;;;;;5052180;28;20192;-69
2021/01/23 03:21:42;;;;;;;11.55;7.63;;;;;;;;;;5052549;28;20219;-71
2021/01/23 03:24:09;;;;;;;14.48;8.18;;;;;;;;;;5052874;28;20211;-71
2021/01/23 03:26:35;;;;;;;12.70;8.20;;;;;;;;;;5051651;28;20568;-70
2021/01/23 03:29:02;;;;;;;12.10;8.02;;;;;;;;;;5052192;28;20201;-70
2021/01/23 03:31:28;;;;;;;16.40;8.85;;;;;;;;;;5051301;28;20217;-69
2021/01/23 03:33:56;;;;;;;11.80;8.52;;;;;;;;;;5052111;28;20196;-69
2021/01/23 03:36:23;;;;;;;13.55;8.57;;;;;;;;;;5051150;28;20239;-70
2021/01/23 03:38:50;;;;;;;13.77;8.07;;;;;;;;;;5051389;28;20258;-70
2021/01/23 03:41:16;;;;;;;15.50;8.45;;;;;;;;;;5051808;28;20192;-69
2021/01/23 03:43:42;;;;;;;13.30;8.10;;;;;;;;;;5051824;28;20222;-70
2021/01/23 03:46:08;;;;;;;14.48;7.70;;;;;;;;;;5051399;28;20583;-69
2021/01/23 03:48:36;;;;;;;12.27;8.30;;;;;;;;;;5052107;28;20208;-70
2021/01/23 03:51:03;;;;;;;11.38;7.78;;;;;;;;;;5051751;28;20592;-70
2021/01/23 03:53:30;;;;;;;14.90;9.05;;;;;;;;;;5051702;28;20216;-68
2021/01/23 03:55:56;;;;;;;11.07;7.55;;;;;;;;;;5052057;28;20191;-69
2021/01/23 03:58:22;;;;;;;12.65;7.95;;;;;;;;;;5052702;28;20243;-70
2021/01/23 04:00:48;;;;;;;11.07;6.75;;;;;;;;;;5052170;28;20196;-70
2021/01/23 04:03:15;;;;;;;12.65;7.68;;;;;;;;;;5052463;28;20218;-70
2021/01/23 04:05:41;;;;;;;14.20;7.80;;;;;;;;;;5050556;28;20592;-70
2021/01/23 04:08:07;;;;;;;14.23;7.63;;;;;;;;;;5051160;28;20204;-69
2021/01/23 04:10:35;;;;;;;12.40;8.00;;;;;;;;;;5055405;28;20593;-69
2021/01/23 04:13:02;;;;;;;15.30;8.45;;;;;;;;;;5051275;28;20196;-69
2021/01/23 04:15:29;;;;;;;11.90;7.93;;;;;;;;;;5051011;28;20207;-70
2021/01/23 04:17:55;;;;;;;12.95;8.02;;;;;;;;;;5051142;28;20662;-72
2021/01/23 04:20:22;;;;;;;15.65;8.40;;;;;;;;;;5050536;28;20200;-71
2021/01/23 04:22:48;;;;;;;10.90;7.65;;;;;;;;;;5051125;28;20193;-72
2021/01/23 04:25:15;;;;;;;13.13;8.50;;;;;;;;;;5050826;28;20212;-71
2021/01/23 04:27:41;;;;;;;17.17;8.30;;;;;;;;;;5050877;28;20215;-71
2021/01/23 04:30:09;;;;;;;10.65;5.38;;;;;;;;;;5050406;28;20238;-70
2021/01/23 04:32:38;;;;;;;15.20;8.32;;;;;;;;;;5051039;28;20192;-70
2021/01/23 04:35:06;;;;;;;12.45;7.53;;;;;;;;;;5050195;28;20200;-70
2021/01/23 04:37:32;;;;;;;13.27;8.30;;;;;;;;;;5051219;28;20195;-71
2021/01/23 04:39:59;;;;;;;12.88;7.65;;;;;;;;;;5050292;28;20207;-71
2021/01/23 04:42:26;;;;;;;11.55;8.02;;;;;;;;;;5050972;28;20184;-70
2021/01/23 04:44:52;;;;;;;13.15;7.72;;;;;;;;;;5050072;28;20196;-71
2021/01/23 04:47:18;;;;;;;12.30;7.43;;;;;;;;;;5050611;28;20185;-70
2021/01/23 04:49:45;;;;;;;10.57;7.53;;;;;;;;;;5049825;28;20216;-70
2021/01/23 04:52:11;;;;;;;13.60;8.07;;;;;;;;;;5050827;28;20197;-70
2021/01/23 04:54:42;;;;;;;13.75;8.43;;;;;;;;;;5050365;28;20192;-70
2021/01/23 04:57:08;;;;;;;16.88;8.50;;;;;;;;;;5048977;28;20200;-70
2021/01/23 04:59:34;;;;;;;20.30;9.38;;;;;;;;;;5050026;28;20200;-71
2021/01/23 05:02:20;;;;;;;17.98;9.88;;;;;;;;;;5049178;28;20200;-70
2021/01/23 05:04:46;;;;;;;14.45;9.55;;;;;;;;;;5050420;28;20207;-71
2021/01/23 05:07:24;;;;;;;15.48;8.90;;;;;;;;;;5050300;28;20291;-70
2021/01/23 05:09:50;;;;;;;14.57;8.35;;;;;;;;;;5049557;28;20184;-71
2021/01/23 05:12:35;;;;;;;14.70;8.55;;;;;;;;;;5050212;28;20184;-70
2021/01/23 05:15:03;;;;;;;16.67;10.40;;;;;;;;;;5049648;28;20232;-70
2021/01/23 05:17:29;;;;;;;18.30;10.40;;;;;;;;;;5049488;28;20192;-70
2021/01/23 05:19:56;;;;;;;23.85;12.35;;;;;;;;;;5049727;28;20655;-70
2021/01/23 05:22:22;;;;;;;26.75;15.20;;;;;;;;;;5049898;28;20232;-70
2021/01/23 05:24:49;;;;;;;21.10;13.57;;;;;;;;;;5049397;28;20192;-72
2021/01/23 05:27:15;;;;;;;21.23;13.45;;;;;;;;;;5049922;28;20200;-71
2021/01/23 05:29:58;;;;;;;20.92;13.95;;;;;;;;;;5050093;28;20192;-72
2021/01/23 05:32:24;;;;;;;21.35;12.15;;;;;;;;;;5050274;28;20612;-71
2021/01/23 05:34:51;;;;;;;24.67;13.82;;;;;;;;;;5049102;28;20675;-73
2021/01/23 05:37:30;;;;;;;19.85;12.50;;;;;;;;;;5049862;28;20232;-70
2021/01/23 05:39:56;;;;;;;17.33;12.05;;;;;;;;;;5049708;28;20558;-71
2021/01/23 05:42:23;;;;;;;18.05;11.77;;;;;;;;;;5051882;28;20196;-72
2021/01/23 05:45:09;;;;;;;20.42;11.85;;;;;;;;;;5049153;28;20195;-72
2021/01/23 05:47:35;;;;;;;22.80;12.90;;;;;;;;;;5049998;28;20196;-69
2021/01/23 05:50:02;;;;;;;19.20;12.73;;;;;;;;;;5049302;28;20253;-71
2021/01/23 05:52:29;;;;;;;143.65;90.13;;;;;;;;;;5049812;28;20231;-71
2021/01/23 05:54:55;;;;;;;80.93;39.40;;;;;;;;;;5049422;28;20208;-71
2021/01/23 05:57:22;;;;;;;48.75;24.67;;;;;;;;;;5049135;28;20303;-71
2021/01/23 05:59:49;;;;;;;39.75;20.90;;;;;;;;;;5049631;28;20199;-70
2021/01/23 06:02:16;;;;;;;19.80;12.38;;;;;;;;;;5048354;28;20192;-71
2021/01/23 06:04:43;;;;;;;26.73;16.33;;;;;;;;;;5050475;28;20561;-70
2021/01/23 06:07:10;;;;;;;18.85;11.85;;;;;;;;;;5050645;28;20675;-72
2021/01/23 06:09:37;;;;;;;15.98;10.80;;;;;;;;;;5050644;28;20207;-72
2021/01/23 06:12:25;;;;;;;17.05;11.43;;;;;;;;;;5050960;28;20277;-70
2021/01/23 06:14:51;;;;;;;19.85;11.35;;;;;;;;;;5048918;28;20201;-69
2021/01/23 06:17:37;;;;;;;18.10;11.60;;;;;;;;;;5049903;28;20193;-69
2021/01/23 06:20:04;;;;;;;16.58;11.00;;;;;;;;;;5048879;28;20682;-71
2021/01/23 06:22:50;;;;;;;19.75;12.35;;;;;;;;;;5049582;28;20203;-70
2021/01/23 06:25:16;;;;;;;22.83;14.35;;;;;;;;;;5047850;28;20298;-72
2021/01/23 06:27:47;;;;;;;23.42;13.52;;;;;;;;;;5045196;28;20219;-69
2021/01/23 06:30:39;;;;;;;27.88;17.60;;;;;;;;;;5050445;28;20216;-70
2021/01/23 06:33:26;;;;;;;34.60;19.40;;;;;;;;;;5047234;28;20279;-69
2021/01/23 06:36:12;;;;;;;31.92;17.70;;;;;;;;;;5048316;28;20220;-70
2021/01/23 06:38:39;;;;;;;33.65;18.58;;;;;;;;;;5042771;28;20296;-70
2021/01/23 06:41:24;;;;;;;27.88;17.42;;;;;;;;;;5050452;28;20193;-71
2021/01/23 06:44:05;;;;;;;28.65;16.80;;;;;;;;;;5048649;28;20185;-71
2021/01/23 06:46:35;;;;;;;27.02;15.27;;;;;;;;;;5048497;28;20222;-70
2021/01/23 06:49:06;;;;;;;25.52;16.42;;;;;;;;;;5051074;28;20250;-72
2021/01/23 06:51:32;;;;;;;24.42;14.85;;;;;;;;;;5048148;28;20216;-71
2021/01/23 06:54:10;;;;;;;24.90;15.10;;;;;;;;;;5050987;28;20693;-70
2021/01/23 06:56:37;;;;;;;24.73;15.38;;;;;;;;;;5049245;28;20196;-70
2021/01/23 06:59:03;;;;;;;24.23;16.05;;;;;;;;;;5051572;28;20192;-69
2021/01/23 07:01:29;;;;;;;28.70;16.00;;;;;;;;;;5048589;28;20763;-70
2021/01/23 07:03:55;;;;;;;25.02;16.52;;;;;;;;;;5051172;28;20189;-70
2021/01/23 07:06:29;;;;;;;23.40;16.10;;;;;;;;;;5050524;28;20196;-70
2021/01/23 07:08:55;;;;;;;22.75;14.57;;;;;;;;;;5048849;28;20576;-69
2021/01/23 07:11:22;;;;;;;23.52;14.93;;;;;;;;;;5049051;28;20219;-70
2021/01/23 07:14:02;;;;;;;22.10;15.05;;;;;;;;;;5053804;28;20181;-68
2021/01/23 07:16:31;;;;;;;27.10;15.93;;;;;;;;;;5050665;28;20212;-70
2021/01/23 07:18:58;;;;;;;27.83;17.67;;;;;;;;;;5040976;28;20204;-70
2021/01/23 07:21:25;;;;;;;33.53;19.35;;;;;;;;;;5040728;28;20194;-72
2021/01/23 07:23:52;;;;;;;33.58;21.80;;;;;;;;;;5039568;28;20714;-71
2021/01/23 07:26:19;;;;;;;22.58;14.68;;;;;;;;;;5041977;28;20192;-71
2021/01/23 07:28:47;;;;;;;24.23;16.00;;;;;;;;;;5050977;28;20196;-71
2021/01/23 07:31:17;;;;;;;24.80;14.00;;;;;;;;;;5046459;28;20235;-71
2021/01/23 07:33:43;;;;;;;21.83;13.98;;;;;;;;;;5051713;28;20575;-69
2021/01/23 07:36:10;;;;;;;23.65;14.90;;;;;;;;;;5050845;28;20568;-69
2021/01/23 07:38:37;;;;;;;89.05;60.20;;;;;;;;;;5050436;28;20621;-70
2021/01/23 07:41:03;;;;;;;37.53;23.17;;;;;;;;;;5045138;28;20697;-69
2021/01/23 07:43:29;;;;;;;71.85;48.30;;;;;;;;;;5051050;28;20203;-72
2021/01/23 07:45:56;;;;;;;23.30;15.93;;;;;;;;;;5050888;28;20701;-70
2021/01/23 07:48:22;;;;;;;20.40;13.77;;;;;;;;;;5051065;28;20192;-72
2021/01/23 07:50:49;;;;;;;21.65;14.25;;;;;;;;;;5050804;28;20323;-74
2021/01/23 07:53:18;;;;;;;24.75;15.07;;;;;;;;;;5050990;28;20192;-73
2021/01/23 07:55:45;;;;;;;26.60;14.90;;;;;;;;;;5050137;28;20224;-72
2021/01/23 07:58:12;;;;;;;23.55;15.18;;;;;;;;;;5050511;28;20678;-71
2021/01/23 08:00:39;;;;;;;58.88;34.67;;;;;;;;;;5050525;28;20262;-70
2021/01/23 08:03:06;;;;;;;31.73;19.10;;;;;;;;;;5049703;28;20204;-70
2021/01/23 08:05:46;;;;;;;30.75;16.45;;;;;;;;;;5049599;28;20200;-72
2021/01/23 08:08:12;;;;;;;24.85;14.07;;;;;;;;;;5050710;28;20207;-71
2021/01/23 08:10:39;;;;;;;24.17;16.03;;;;;;;;;;5050125;28;20215;-71
2021/01/23 08:13:06;;;;;;;25.10;15.87;;;;;;;;;;5050708;28;20428;-70
2021/01/23 08:15:37;;;;;;;21.90;14.63;;;;;;;;;;5050484;28;21042;-70
2021/01/23 08:18:23;;;;;;;24.67;17.20;;;;;;;;;;5050603;28;20203;-69
2021/01/23 08:20:49;;;;;;;128.07;87.87;;;;;;;;;;5049781;28;20435;-69
2021/01/23 08:23:21;;;;;;;145.90;105.72;;;;;;;;;;5050602;28;20446;-69
2021/01/23 08:25:51;;;;;;;27.27;17.63;;;;;;;;;;5049781;28;20185;-71
2021/01/23 08:28:27;;;;;;;24.67;17.67;;;;;;;;;;5050534;28;20443;-70
2021/01/23 08:30:54;;;;;;;26.15;15.65;;;;;;;;;;5050438;28;20566;-71
2021/01/23 08:33:20;;;;;;;26.13;17.03;;;;;;;;;;5050363;28;20219;-71
2021/01/23 08:35:46;;;;;;;27.88;18.42;;;;;;;;;;5049677;28;20829;-71
2021/01/23 08:38:13;;;;;;;25.33;16.88;;;;;;;;;;5050046;28;20180;-71
2021/01/23 08:40:39;;;;;;;23.93;16.67;;;;;;;;;;5049358;28;20211;-71
2021/01/23 08:43:05;;;;;;;123.95;81.00;;;;;;;;;;5050801;28;20514;-68
2021/01/23 08:45:31;;;;;;;28.55;19.25;;;;;;;;;;5051352;28;20283;-70
2021/01/23 08:47:58;;;;;;;32.10;18.93;;;;;;;;;;5050260;28;20200;-70
2021/01/23 08:50:24;;;;;;;29.42;19.55;;;;;;;;;;5049427;28;20475;-70
2021/01/23 08:52:50;;;;;;;33.37;20.47;;;;;;;;;;5049513;28;20261;-71
2021/01/23 08:55:17;;;;;;;39.70;23.40;;;;;;;;;;5048863;28;20425;-70
2021/01/23 08:57:43;;;;;;;32.80;20.83;;;;;;;;;;5049975;28;20443;-71
2021/01/23 09:00:11;;;;;;;35.97;23.13;;;;;;;;;;5049050;28;20439;-71
2021/01/23 09:02:37;;;;;;;40.17;24.47;;;;;;;;;;5049557;28;20467;-69
2021/01/23 09:05:04;;;;;;;40.07;26.27;;;;;;;;;;5049463;28;20497;-72
2021/01/23 09:07:30;;;;;;;47.43;29.43;;;;;;;;;;5049693;28;20458;-71
2021/01/23 09:09:56;;;;;;;48.77;31.07;;;;;;;;;;5048881;28;20469;-71
2021/01/23 09:12:23;;;;;;;53.80;33.00;;;;;;;;;;5049610;28;20471;-69
2021/01/23 09:14:49;;;;;;;41.30;26.33;;;;;;;;;;5049442;28;20515;-69
2021/01/23 09:17:16;;;;;;;39.23;25.57;;;;;;;;;;5049620;28;20521;-71
2021/01/23 09:19:42;;;;;;;42.37;24.37;;;;;;;;;;5048811;28;20443;-69
2021/01/23 09:22:10;;;;;;;41.03;23.77;;;;;;;;;;5049404;28;20494;-71
2021/01/23 09:24:36;;;;;;;38.80;24.23;;;;;;;;;;5049342;28;20445;-71
2021/01/23 09:27:03;;;;;;;36.40;22.80;;;;;;;;;;5049870;28;20464;-69
2021/01/23 09:29:29;;;;;;;37.93;23.70;;;;;;;;;;5048625;28;20949;-69
2021/01/23 09:31:56;;;;;;;103.80;49.10;;;;;;;;;;5049006;28;20467;-69
2021/01/23 09:34:22;;;;;;;63.30;33.53;;;;;;;;;;5048608;28;20445;-69
2021/01/23 09:36:48;;;;;;;34.90;23.70;;;;;;;;;;5048662;28;20552;-70
2021/01/23 09:39:14;;;;;;;35.83;24.67;;;;;;;;;;5048232;28;20434;-68
2021/01/23 09:41:41;;;;;;;50.97;32.50;;;;;;;;;;5049083;28;20548;-70
2021/01/23 09:44:08;;;;;;;68.23;45.83;;;;;;;;;;5049019;28;20986;-68
2021/01/23 09:46:34;;;;;;;40.50;26.93;;;;;;;;;;5048835;28;20461;-65
2021/01/23 09:49:00;;;;;;;43.00;26.73;;;;;;;;;;5049055;28;20439;-69
2021/01/23 09:51:27;;;;;;;45.20;26.47;;;;;;;;;;5048314;28;20876;-69
2021/01/23 09:53:53;;;;;;;40.70;27.30;;;;;;;;;;5048693;28;20439;-68
2021/01/23 09:56:19;;;;;;;42.47;26.80;;;;;;;;;;5048662;28;20446;-67
2021/01/23 09:58:45;;;;;;;40.40;26.70;;;;;;;;;;5048864;28;20439;-70
2021/01/23 10:01:11;;;;;;;42.97;26.03;;;;;;;;;;5048295;28;20456;-68
2021/01/23 10:03:38;;;;;;;40.23;25.83;;;;;;;;;;5051230;28;20896;-69
2021/01/23 10:06:04;;;;;;;43.97;26.80;;;;;;;;;;5052074;28;20486;-63
2021/01/23 10:08:30;;;;;;;45.07;26.70;;;;;;;;;;5052920;28;20443;-64
2021/01/23 10:10:56;;;;;;;48.03;24.87;;;;;;;;;;5052951;28;20542;-66
2021/01/23 10:13:23;;;;;;;41.13;24.03;;;;;;;;;;5053836;28;20443;-67
2021/01/23 10:15:49;;;;;;;35.63;20.73;;;;;;;;;;5056140;28;20439;-66
2021/01/23 10:18:15;;;;;;;32.30;21.77;;;;;;;;;;5055553;28;20477;-67
2021/01/23 10:20:41;;;;;;;113.17;77.83;;;;;;;;;;5053093;28;20439;-66
2021/01/23 10:23:08;;;;;;;53.07;36.73;;;;;;;;;;5052775;28;20450;-65
2021/01/23 10:25:34;;;;;;;30.80;18.87;;;;;;;;;;5052388;28;20450;-65
2021/01/23 10:28:00;;;;;;;30.67;21.00;;;;;;;;;;5052927;28;20419;-65
2021/01/23 10:30:26;;;;;;;29.97;20.87;;;;;;;;;;5053315;28;20438;-65
2021/01/23 10:32:52;;;;;;;35.60;21.33;;;;;;;;;;5055761;28;20969;-67
2021/01/23 10:35:19;;;;;;;30.07;20.30;;;;;;;;;;5054602;28;20458;-66
2021/01/23 10:37:46;;;;;;;30.27;19.63;;;;;;;;;;5054227;28;20449;-67
2021/01/23 10:40:13;;;;;;;31.53;18.90;;;;;;;;;;5040980;28;20440;-66
2021/01/23 10:42:39;;;;;;;28.20;18.73;;;;;;;;;;5052318;28;20457;-67
2021/01/23 10:45:07;;;;;;;24.80;16.97;;;;;;;;;;5050626;28;20443;-65
2021/01/23 10:47:34;;;;;;;26.93;17.60;;;;;;;;;;5053324;28;20434;-66
2021/01/23 10:50:01;;;;;;;25.80;16.93;;;;;;;;;;5052560;28;20473;-66
2021/01/23 10:52:27;;;;;;;26.27;16.90;;;;;;;;;;5052498;28;20535;-66
2021/01/23 10:54:54;;;;;;;25.27;17.30;;;;;;;;;;5052033;28;20520;-67
2021/01/23 10:57:20;;;;;;;28.73;17.37;;;;;;;;;;5052914;28;20512;-68
2021/01/23 10:59:46;;;;;;;23.97;17.60;;;;;;;;;;5052287;28;20450;-67
2021/01/23 11:02:12;;;;;;;25.00;17.40;;;;;;;;;;5052924;28;20451;-65
2021/01/23 11:04:40;;;;;;;20.13;14.50;;;;;;;;;;5052276;28;20447;-66
2021/01/23 11:07:07;;;;;;;24.53;15.30;;;;;;;;;;5052845;28;20446;-65
2021/01/23 11:09:33;;;;;;;23.47;15.80;;;;;;;;;;5051979;28;20442;-65
2021/01/23 11:11:59;;;;;;;25.27;17.07;;;;;;;;;;5052711;28;20531;-66
2021/01/23 11:14:26;;;;;;;23.40;16.30;;;;;;;;;;5052248;28;20443;-68
2021/01/23 11:16:52;;;;;;;33.73;20.53;;;;;;;;;;5053673;28;20415;-68
2021/01/23 11:19:20;;;;;;;80.90;51.63;;;;;;;;;;5052661;28;20455;-65
2021/01/23 11:21:46;;;;;;;37.97;23.27;;;;;;;;;;5046993;28;20969;-65
2021/01/23 11:24:12;;;;;;;30.77;19.37;;;;;;;;;;5040479;28;20443;-65
2021/01/23 11:26:39;;;;;;;29.40;18.00;;;;;;;;;;5049804;28;20528;-65
2021/01/23 11:29:05;;;;;;;28.07;17.30;;;;;;;;;;5050614;28;20446;-65
2021/01/23 11:31:31;;;;;;;34.67;18.30;;;;;;;;;;5049755;28;20471;-67
2021/01/23 11:33:58;;;;;;;30.43;17.80;;;;;;;;;;5039247;28;20432;-66
2021/01/23 11:36:24;;;;;;;30.07;20.07;;;;;;;;;;5040266;28;20455;-65
2021/01/23 11:38:51;;;;;;;31.73;19.77;;;;;;;;;;5039949;28;20453;-65
2021/01/23 11:41:17;;;;;;;26.60;16.23;;;;;;;;;;5050003;28;20431;-65
2021/01/23 11:43:43;;;;;;;24.13;15.17;;;;;;;;;;5046740;28;20431;-66
2021/01/23 11:46:09;;;;;;;27.17;17.87;;;;;;;;;;5049827;28;20583;-66
2021/01/23 11:48:36;;;;;;;35.80;20.27;;;;;;;;;;5051639;28;20435;-65
2021/01/23 11:51:02;;;;;;;44.87;25.83;;;;;;;;;;5051651;28;20559;-65
2021/01/23 11:53:28;;;;;;;44.87;25.07;;;;;;;;;;5051158;28;20817;-66
2021/01/23 11:55:54;;;;;;;45.50;26.87;;;;;;;;;;5050926;28;20512;-65
2021/01/23 11:58:20;;;;;;;46.07;26.33;;;;;;;;;;5051266;28;20447;-66
2021/01/23 12:00:47;;;;;;;59.53;37.90;;;;;;;;;;5051178;28;20435;-64
2021/01/23 12:03:13;;;;;;;46.90;29.63;;;;;;;;;;5051121;28;21206;-67
2021/01/23 12:05:39;;;;;;;63.93;37.23;;;;;;;;;;5050782;28;20518;-66
2021/01/23 12:08:05;;;;;;;48.87;31.27;;;;;;;;;;5050873;28;20467;-65
2021/01/23 12:10:32;;;;;;;30.07;18.03;;;;;;;;;;5050758;28;20504;-65
2021/01/23 12:12:58;;;;;;;24.73;13.77;;;;;;;;;;5051354;28;20641;-65
2021/01/23 12:15:24;;;;;;;22.93;14.33;;;;;;;;;;5050913;28;21026;-64
2021/01/23 12:17:53;;;;;;;26.50;15.33;;;;;;;;;;5051286;28;20415;-65
2021/01/23 12:20:21;;;;;;;27.33;16.33;;;;;;;;;;5050563;28;20450;-65
2021/01/23 12:22:47;;;;;;;27.30;16.77;;;;;;;;;;5050374;28;20458;-66
2021/01/23 12:25:14;;;;;;;29.70;17.37;;;;;;;;;;5050069;28;20443;-65
2021/01/23 12:27:42;;;;;;;25.23;16.13;;;;;;;;;;5050759;28;20447;-65
2021/01/23 12:30:09;;;;;;;25.40;15.87;;;;;;;;;;5050792;28;20447;-66
2021/01/23 12:32:36;;;;;;;26.00;15.10;;;;;;;;;;5042684;28;20513;-66
2021/01/23 12:35:03;;;;;;;26.70;16.00;;;;;;;;;;5048640;28;20485;-66
2021/01/23 12:37:30;;;;;;;23.50;14.90;;;;;;;;;;5050087;28;21111;-66
2021/01/23 12:40:00;;;;;;;22.43;13.23;;;;;;;;;;5049724;28;20439;-67
2021/01/23 12:42:26;;;;;;;22.97;14.07;;;;;;;;;;5050644;28;20562;-65
2021/01/23 12:44:53;;;;;;;29.43;15.30;;;;;;;;;;5049716;28;20446;-66
2021/01/23 12:47:20;;;;;;;26.27;13.70;;;;;;;;;;5050720;28;20481;-65
2021/01/23 12:49:46;;;;;;;21.70;12.80;;;;;;;;;;5050329;28;20995;-66
2021/01/23 12:52:12;;;;;;;26.00;16.10;;;;;;;;;;5050221;28;20521;-66
2021/01/23 12:54:40;;;;;;;33.13;19.13;;;;;;;;;;5049950;28;20439;-67
2021/01/23 12:57:06;;;;;;;52.70;31.70;;;;;;;;;;5050655;28;20953;-66
2021/01/23 12:59:36;;;;;;;52.73;31.90;;;;;;;;;;5049601;28;20963;-66
2021/01/23 13:02:03;;;;;;;49.23;29.20;;;;;;;;;;5050438;28;20446;-67
2021/01/23 13:04:30;;;;;;;46.53;29.70;;;;;;;;;;5049705;28;20443;-67
2021/01/23 13:06:56;;;;;;;41.60;24.97;;;;;;;;;;5049932;28;20439;-67
2021/01/23 13:09:23;;;;;;;46.43;27.57;;;;;;;;;;5049837;28;20438;-65
2021/01/23 13:11:49;;;;;;;42.47;26.73;;;;;;;;;;5050047;28;20482;-66
2021/01/23 13:14:16;;;;;;;54.97;32.57;;;;;;;;;;5049835;28;21027;-65
2021/01/23 13:16:43;;;;;;;47.00;27.93;;;;;;;;;;5049704;28;20960;-66
2021/01/23 13:19:10;;;;;;;62.63;36.97;;;;;;;;;;5050369;28;20443;-66
2021/01/23 13:21:36;;;;;;;42.83;25.83;;;;;;;;;;5049914;28;20990;-66
2021/01/23 13:24:03;;;;;;;45.80;27.63;;;;;;;;;;5050519;28;20443;-66
2021/01/23 13:26:29;;;;;;;42.03;24.13;;;;;;;;;;5049158;28;20453;-68
2021/01/23 13:29:00;;;;;;;44.90;29.07;;;;;;;;;;5049870;28;20438;-68
2021/01/23 13:31:28;;;;;;;49.17;28.70;;;;;;;;;;5049308;28;20473;-67
2021/01/23 13:33:54;;;;;;;44.33;28.23;;;;;;;;;;5048569;28;20437;-68
2021/01/23 13:36:21;;;;;;;28.57;18.80;;;;;;;;;;5031355;28;20484;-70
2021/01/23 13:38:47;;;;;;;20.03;13.17;;;;;;;;;;5029216;28;20446;-68
2021/01/23 13:41:13;;;;;;;20.00;13.50;;;;;;;;;;5030814;28;20440;-67
2021/01/23 13:43:40;;;;;;;54.17;29.40;;;;;;;;;;5048032;28;20431;-67
2021/01/23 13:46:06;;;;;;;51.13;31.43;;;;;;;;;;5047950;28;20427;-67
2021/01/23 13:48:32;;;;;;;30.07;19.33;;;;;;;;;;5045263;28;20439;-69
2021/01/23 13:50:58;;;;;;;29.97;18.47;;;;;;;;;;5047005;28;20466;-67
2021/01/23 13:53:25;;;;;;;107.90;63.60;;;;;;;;;;5049314;28;20447;-68
2021/01/23 13:55:51;;;;;;;85.60;45.30;;;;;;;;;;5048897;28;20427;-69
2021/01/23 13:58:17;;;;;;;38.30;23.70;;;;;;;;;;5049448;28;20447;-68
2021/01/23 14:00:43;;;;;;;82.10;50.97;;;;;;;;;;5049037;28;20435;-69
2021/01/23 14:03:09;;;;;;;26.93;17.10;;;;;;;;;;5049192;28;20542;-67
2021/01/23 14:05:36;;;;;;;73.90;43.93;;;;;;;;;;5048224;28;20469;-66
2021/01/23 14:08:03;;;;;;;141.43;72.57;;;;;;;;;;5049128;28;20802;-68
2021/01/23 14:10:29;;;;;;;117.90;62.73;;;;;;;;;;5048766;28;20550;-68
2021/01/23 14:12:55;;;;;;;24.90;14.67;;;;;;;;;;5048991;28;20573;-68
2021/01/23 14:15:22;;;;;;;23.90;16.03;;;;;;;;;;5048646;28;20455;-67
2021/01/23 14:17:51;;;;;;;18.33;13.23;;;;;;;;;;5048908;28;20438;-68
2021/01/23 14:20:21;;;;;;;17.00;12.13;;;;;;;;;;5048777;28;20542;-67
2021/01/23 14:22:47;;;;;;;15.73;11.33;;;;;;;;;;5048744;28;20478;-68
2021/01/23 14:25:15;;;;;;;20.30;14.80;;;;;;;;;;5049088;28;20454;-68